Minneapolis, Minnesota
Current Conditions -  °F | °C
As of 4:53 PM on Wednesday 26 Nov 2014 (Local Time) from KMSP Reporting Station
Scattered Clouds Scattered Clouds  
Wind Chill: -10°   Ceiling: Unl
Heat Index: -6°   Visibility: 10mi
Dew Point: -9°   Wind: 6mph
Humidity: 75%   Direction: 330°NNW
Pressure: 30.26"   Gusts: NA
Location:  44.98°N, 93.26°W
Report Text: KMSP 262253Z 33005KT 10SM SCT048 M06/M09 A3026 RMK AO2 SLP262 T10561094
Loading
Personal Weather Stations






























Interactive Weather Map New forecast layout! Learn more

10-Day Weather Forecast

Advertisements
Track Severe Weather on mobile